Terminal Aerodrome Forecast
Issued by NWS Shreveport, LA

Home | Current Version | Previous Version | Text Only | Print | Product List | Glossary On
Versions: 1 2 3 4 5 6 7 8 9 10 11 12 13 14 15 16 17 18
000
FTUS44 KSHV 300114 AAA
TAFSHV
TAF AMD
KSHV 300114Z 3001/3024 VRB04KT P6SM SCT100 BKN250
      TEMPO 3010/3013 5SM BR
     FM301300 VRB06KT P6SM VCTS SCT015 BKN040CB BKN100
      TEMPO 3014/3018 3SM -TSRA BR BKN030CB
     FM301800 23008KT P6SM SCT040 SCT130 BKN250=

USA.gov is the U.S. government's official web portal to all federal, state and local government web resources and services.